sensor_id;sensor_type;location;lat;lon;timestamp;temperature;humidity
72206;DHT22;60111;48.286;7.812;2023-04-28T00:02:02;14.50;62.20
72206;DHT22;60111;48.286;7.812;2023-04-28T00:04:34;14.60;61.40
72206;DHT22;60111;48.286;7.812;2023-04-28T00:07:08;14.50;61.60
72206;DHT22;60111;48.286;7.812;2023-04-28T00:09:40;14.50;61.30
72206;DHT22;60111;48.286;7.812;2023-04-28T00:12:13;14.50;61.20
72206;DHT22;60111;48.286;7.812;2023-04-28T00:14:45;14.50;61.10
72206;DHT22;60111;48.286;7.812;2023-04-28T00:17:18;14.50;61.10
72206;DHT22;60111;48.286;7.812;2023-04-28T00:19:52;14.60;60.80
72206;DHT22;60111;48.286;7.812;2023-04-28T00:22:25;14.60;60.70
72206;DHT22;60111;48.286;7.812;2023-04-28T00:24:57;14.60;60.70
72206;DHT22;60111;48.286;7.812;2023-04-28T00:27:31;14.60;61.30
72206;DHT22;60111;48.286;7.812;2023-04-28T00:30:03;14.60;60.80
72206;DHT22;60111;48.286;7.812;2023-04-28T00:32:36;14.60;61.00
72206;DHT22;60111;48.286;7.812;2023-04-28T00:35:09;14.50;61.20
72206;DHT22;60111;48.286;7.812;2023-04-28T00:37:41;14.50;61.40
72206;DHT22;60111;48.286;7.812;2023-04-28T00:40:14;14.50;61.80
72206;DHT22;60111;48.286;7.812;2023-04-28T00:42:46;14.50;61.60
72206;DHT22;60111;48.286;7.812;2023-04-28T00:45:19;14.50;62.00
72206;DHT22;60111;48.286;7.812;2023-04-28T00:47:51;14.50;62.10
72206;DHT22;60111;48.286;7.812;2023-04-28T00:50:25;14.50;62.40
72206;DHT22;60111;48.286;7.812;2023-04-28T00:52:59;14.50;63.30
72206;DHT22;60111;48.286;7.812;2023-04-28T00:55:31;14.50;63.60
72206;DHT22;60111;48.286;7.812;2023-04-28T00:58:06;14.50;63.50
72206;DHT22;60111;48.286;7.812;2023-04-28T01:00:39;14.50;63.10
72206;DHT22;60111;48.286;7.812;2023-04-28T01:03:11;14.50;63.00
72206;DHT22;60111;48.286;7.812;2023-04-28T01:05:44;14.60;63.40
72206;DHT22;60111;48.286;7.812;2023-04-28T01:08:21;14.70;62.40
72206;DHT22;60111;48.286;7.812;2023-04-28T01:10:51;14.60;63.00
72206;DHT22;60111;48.286;7.812;2023-04-28T01:13:23;14.60;64.90
72206;DHT22;60111;48.286;7.812;2023-04-28T01:15:56;14.60;65.90
72206;DHT22;60111;48.286;7.812;2023-04-28T01:18:30;14.60;67.20
72206;DHT22;60111;48.286;7.812;2023-04-28T01:21:03;14.60;67.80
72206;DHT22;60111;48.286;7.812;2023-04-28T01:23:36;14.60;67.30
72206;DHT22;60111;48.286;7.812;2023-04-28T01:26:09;14.40;68.10
72206;DHT22;60111;48.286;7.812;2023-04-28T01:28:42;14.30;68.70
72206;DHT22;60111;48.286;7.812;2023-04-28T01:31:14;14.40;69.90
72206;DHT22;60111;48.286;7.812;2023-04-28T01:33:47;14.30;70.60
72206;DHT22;60111;48.286;7.812;2023-04-28T01:36:19;14.40;71.00
72206;DHT22;60111;48.286;7.812;2023-04-28T01:38:54;14.30;70.00
72206;DHT22;60111;48.286;7.812;2023-04-28T01:41:26;14.10;71.00
72206;DHT22;60111;48.286;7.812;2023-04-28T01:43:59;14.00;72.00
72206;DHT22;60111;48.286;7.812;2023-04-28T01:46:32;14.00;72.00
72206;DHT22;60111;48.286;7.812;2023-04-28T01:49:04;13.90;73.10
72206;DHT22;60111;48.286;7.812;2023-04-28T01:51:40;13.80;74.00
72206;DHT22;60111;48.286;7.812;2023-04-28T01:54:31;13.80;73.10
72206;DHT22;60111;48.286;7.812;2023-04-28T01:57:04;13.80;73.90
72206;DHT22;60111;48.286;7.812;2023-04-28T01:59:36;13.70;74.40
72206;DHT22;60111;48.286;7.812;2023-04-28T02:02:09;13.70;73.40
72206;DHT22;60111;48.286;7.812;2023-04-28T02:04:42;13.60;73.40
72206;DHT22;60111;48.286;7.812;2023-04-28T02:07:14;13.50;74.10
72206;DHT22;60111;48.286;7.812;2023-04-28T02:09:47;13.50;74.40
72206;DHT22;60111;48.286;7.812;2023-04-28T02:12:19;13.50;73.50
72206;DHT22;60111;48.286;7.812;2023-04-28T02:14:52;13.40;74.00
72206;DHT22;60111;48.286;7.812;2023-04-28T02:17:25;13.40;74.70
72206;DHT22;60111;48.286;7.812;2023-04-28T02:20:17;13.40;75.40
72206;DHT22;60111;48.286;7.812;2023-04-28T02:22:49;13.40;75.40
72206;DHT22;60111;48.286;7.812;2023-04-28T02:25:22;13.60;75.50
72206;DHT22;60111;48.286;7.812;2023-04-28T02:27:55;13.60;75.30
72206;DHT22;60111;48.286;7.812;2023-04-28T02:30:27;13.60;75.10
72206;DHT22;60111;48.286;7.812;2023-04-28T02:33:00;13.40;75.80
72206;DHT22;60111;48.286;7.812;2023-04-28T02:35:33;13.40;76.10
72206;DHT22;60111;48.286;7.812;2023-04-28T02:38:05;13.40;76.70
72206;DHT22;60111;48.286;7.812;2023-04-28T02:40:38;13.40;76.60
72206;DHT22;60111;48.286;7.812;2023-04-28T02:43:11;13.40;76.90
72206;DHT22;60111;48.286;7.812;2023-04-28T02:45:43;13.40;77.20
72206;DHT22;60111;48.286;7.812;2023-04-28T02:48:16;13.30;77.70
72206;DHT22;60111;48.286;7.812;2023-04-28T02:50:49;13.30;78.00
72206;DHT22;60111;48.286;7.812;2023-04-28T02:53:23;13.20;78.80
72206;DHT22;60111;48.286;7.812;2023-04-28T02:55:55;13.20;79.30
72206;DHT22;60111;48.286;7.812;2023-04-28T02:58:28;13.10;79.80
72206;DHT22;60111;48.286;7.812;2023-04-28T03:01:01;13.10;80.30
72206;DHT22;60111;48.286;7.812;2023-04-28T03:03:33;13.00;80.30
72206;DHT22;60111;48.286;7.812;2023-04-28T03:06:06;13.00;80.80
72206;DHT22;60111;48.286;7.812;2023-04-28T03:08:39;13.00;81.10
72206;DHT22;60111;48.286;7.812;2023-04-28T03:11:11;13.10;80.60
72206;DHT22;60111;48.286;7.812;2023-04-28T03:13:44;13.10;80.60
72206;DHT22;60111;48.286;7.812;2023-04-28T03:16:17;12.90;81.60
72206;DHT22;60111;48.286;7.812;2023-04-28T03:18:49;12.90;81.70
72206;DHT22;60111;48.286;7.812;2023-04-28T03:21:22;12.90;81.90
72206;DHT22;60111;48.286;7.812;2023-04-28T03:23:56;12.90;82.00
72206;DHT22;60111;48.286;7.812;2023-04-28T03:26:29;12.80;82.20
72206;DHT22;60111;48.286;7.812;2023-04-28T03:29:01;12.90;82.30
72206;DHT22;60111;48.286;7.812;2023-04-28T03:31:34;12.80;82.30
72206;DHT22;60111;48.286;7.812;2023-04-28T03:34:07;12.80;82.50
72206;DHT22;60111;48.286;7.812;2023-04-28T03:36:39;12.80;82.70
72206;DHT22;60111;48.286;7.812;2023-04-28T03:39:12;12.80;82.90
72206;DHT22;60111;48.286;7.812;2023-04-28T03:41:44;12.80;82.80
72206;DHT22;60111;48.286;7.812;2023-04-28T03:44:17;12.90;82.70
72206;DHT22;60111;48.286;7.812;2023-04-28T03:46:50;12.90;83.20
72206;DHT22;60111;48.286;7.812;2023-04-28T03:49:22;13.00;83.10
72206;DHT22;60111;48.286;7.812;2023-04-28T03:51:55;13.10;82.60
72206;DHT22;60111;48.286;7.812;2023-04-28T03:54:27;13.20;82.60
72206;DHT22;60111;48.286;7.812;2023-04-28T03:57:00;13.10;82.70
72206;DHT22;60111;48.286;7.812;2023-04-28T03:59:32;13.10;83.00
72206;DHT22;60111;48.286;7.812;2023-04-28T04:02:05;13.10;83.30
72206;DHT22;60111;48.286;7.812;2023-04-28T04:04:38;13.10;83.40
72206;DHT22;60111;48.286;7.812;2023-04-28T04:07:11;13.20;83.70
72206;DHT22;60111;48.286;7.812;2023-04-28T04:09:44;13.20;83.80
72206;DHT22;60111;48.286;7.812;2023-04-28T04:12:17;13.10;84.30
72206;DHT22;60111;48.286;7.812;2023-04-28T04:14:49;13.10;84.70
72206;DHT22;60111;48.286;7.812;2023-04-28T04:17:22;13.10;84.90
72206;DHT22;60111;48.286;7.812;2023-04-28T04:19:54;13.20;84.10
72206;DHT22;60111;48.286;7.812;2023-04-28T04:22:27;13.30;84.10
72206;DHT22;60111;48.286;7.812;2023-04-28T04:24:59;13.30;84.10
72206;DHT22;60111;48.286;7.812;2023-04-28T04:27:33;13.30;84.20
72206;DHT22;60111;48.286;7.812;2023-04-28T04:30:06;13.30;84.30
72206;DHT22;60111;48.286;7.812;2023-04-28T04:32:39;13.40;84.40
72206;DHT22;60111;48.286;7.812;2023-04-28T04:35:11;13.40;84.30
72206;DHT22;60111;48.286;7.812;2023-04-28T04:37:44;13.40;84.30
72206;DHT22;60111;48.286;7.812;2023-04-28T04:40:16;13.60;83.50
72206;DHT22;60111;48.286;7.812;2023-04-28T04:42:49;13.60;83.70
72206;DHT22;60111;48.286;7.812;2023-04-28T04:45:21;13.60;84.20
72206;DHT22;60111;48.286;7.812;2023-04-28T04:47:54;13.60;83.60
72206;DHT22;60111;48.286;7.812;2023-04-28T04:50:27;13.70;83.60
72206;DHT22;60111;48.286;7.812;2023-04-28T04:52:59;13.60;84.10
72206;DHT22;60111;48.286;7.812;2023-04-28T04:55:32;13.60;84.50
72206;DHT22;60111;48.286;7.812;2023-04-28T04:58:04;13.60;84.50
72206;DHT22;60111;48.286;7.812;2023-04-28T05:00:37;13.60;84.50
72206;DHT22;60111;48.286;7.812;2023-04-28T05:03:09;13.60;84.60
72206;DHT22;60111;48.286;7.812;2023-04-28T05:05:42;13.60;84.70
72206;DHT22;60111;48.286;7.812;2023-04-28T05:08:16;13.70;84.40
72206;DHT22;60111;48.286;7.812;2023-04-28T05:11:08;13.80;84.10
72206;DHT22;60111;48.286;7.812;2023-04-28T05:13:41;13.80;84.30
72206;DHT22;60111;48.286;7.812;2023-04-28T05:16:13;13.90;83.60
72206;DHT22;60111;48.286;7.812;2023-04-28T05:18:46;13.90;83.70
72206;DHT22;60111;48.286;7.812;2023-04-28T05:21:19;13.80;84.00
72206;DHT22;60111;48.286;7.812;2023-04-28T05:23:51;13.90;84.00
72206;DHT22;60111;48.286;7.812;2023-04-28T05:26:24;13.90;83.80
72206;DHT22;60111;48.286;7.812;2023-04-28T05:28:57;14.00;82.90
72206;DHT22;60111;48.286;7.812;2023-04-28T05:31:29;14.00;83.30
72206;DHT22;60111;48.286;7.812;2023-04-28T05:34:02;14.10;82.70
72206;DHT22;60111;48.286;7.812;2023-04-28T05:36:34;14.10;83.10
72206;DHT22;60111;48.286;7.812;2023-04-28T05:39:07;14.10;82.90
72206;DHT22;60111;48.286;7.812;2023-04-28T05:41:40;14.10;83.00
72206;DHT22;60111;48.286;7.812;2023-04-28T05:44:12;14.10;82.40
72206;DHT22;60111;48.286;7.812;2023-04-28T05:46:45;14.10;82.20
72206;DHT22;60111;48.286;7.812;2023-04-28T05:49:18;14.10;83.00
72206;DHT22;60111;48.286;7.812;2023-04-28T05:51:50;14.20;82.20
72206;DHT22;60111;48.286;7.812;2023-04-28T05:54:23;14.20;82.20
72206;DHT22;60111;48.286;7.812;2023-04-28T05:56:56;14.20;81.90
72206;DHT22;60111;48.286;7.812;2023-04-28T05:59:28;14.20;81.90
72206;DHT22;60111;48.286;7.812;2023-04-28T06:02:02;14.20;81.90
72206;DHT22;60111;48.286;7.812;2023-04-28T06:04:34;14.10;83.40
72206;DHT22;60111;48.286;7.812;2023-04-28T06:07:07;14.10;83.00
72206;DHT22;60111;48.286;7.812;2023-04-28T06:09:40;14.10;82.80
72206;DHT22;60111;48.286;7.812;2023-04-28T06:12:12;14.10;82.80
72206;DHT22;60111;48.286;7.812;2023-04-28T06:14:45;14.10;82.90
72206;DHT22;60111;48.286;7.812;2023-04-28T06:17:18;14.10;83.00
72206;DHT22;60111;48.286;7.812;2023-04-28T06:19:50;14.00;83.30
72206;DHT22;60111;48.286;7.812;2023-04-28T06:22:24;14.00;83.30
72206;DHT22;60111;48.286;7.812;2023-04-28T06:24:57;14.00;83.70
72206;DHT22;60111;48.286;7.812;2023-04-28T06:27:29;14.10;83.70
72206;DHT22;60111;48.286;7.812;2023-04-28T06:30:03;14.10;83.90
72206;DHT22;60111;48.286;7.812;2023-04-28T06:32:36;14.00;84.40
72206;DHT22;60111;48.286;7.812;2023-04-28T06:35:09;14.00;84.30
72206;DHT22;60111;48.286;7.812;2023-04-28T06:37:42;14.00;84.80
72206;DHT22;60111;48.286;7.812;2023-04-28T06:40:14;14.00;84.80
72206;DHT22;60111;48.286;7.812;2023-04-28T06:42:47;14.00;84.90
72206;DHT22;60111;48.286;7.812;2023-04-28T06:45:20;14.10;84.60
72206;DHT22;60111;48.286;7.812;2023-04-28T06:47:53;13.90;85.30
72206;DHT22;60111;48.286;7.812;2023-04-28T06:50:28;13.90;85.70
72206;DHT22;60111;48.286;7.812;2023-04-28T06:53:00;13.90;86.20
72206;DHT22;60111;48.286;7.812;2023-04-28T06:55:33;13.90;86.20
72206;DHT22;60111;48.286;7.812;2023-04-28T06:58:06;13.90;86.10
72206;DHT22;60111;48.286;7.812;2023-04-28T07:00:39;13.90;86.80
72206;DHT22;60111;48.286;7.812;2023-04-28T07:03:12;13.80;86.80
72206;DHT22;60111;48.286;7.812;2023-04-28T07:05:44;13.80;87.10
72206;DHT22;60111;48.286;7.812;2023-04-28T07:08:17;13.80;87.20
72206;DHT22;60111;48.286;7.812;2023-04-28T07:10:49;13.90;87.00
72206;DHT22;60111;48.286;7.812;2023-04-28T07:13:22;13.90;86.90
72206;DHT22;60111;48.286;7.812;2023-04-28T07:15:55;13.90;86.80
72206;DHT22;60111;48.286;7.812;2023-04-28T07:18:28;14.00;86.80
72206;DHT22;60111;48.286;7.812;2023-04-28T07:21:00;13.80;87.50
72206;DHT22;60111;48.286;7.812;2023-04-28T07:23:33;13.90;87.50
72206;DHT22;60111;48.286;7.812;2023-04-28T07:26:06;13.90;87.70
72206;DHT22;60111;48.286;7.812;2023-04-28T07:28:39;13.90;87.90
72206;DHT22;60111;48.286;7.812;2023-04-28T07:31:12;14.00;87.30
72206;DHT22;60111;48.286;7.812;2023-04-28T07:33:45;14.00;87.20
72206;DHT22;60111;48.286;7.812;2023-04-28T07:36:17;14.00;87.30
72206;DHT22;60111;48.286;7.812;2023-04-28T07:38:50;14.00;87.30
72206;DHT22;60111;48.286;7.812;2023-04-28T07:41:24;13.90;87.80
72206;DHT22;60111;48.286;7.812;2023-04-28T07:43:56;14.00;87.50
72206;DHT22;60111;48.286;7.812;2023-04-28T07:46:29;14.00;87.70
72206;DHT22;60111;48.286;7.812;2023-04-28T07:49:02;14.10;87.30
72206;DHT22;60111;48.286;7.812;2023-04-28T07:51:35;14.10;86.90
72206;DHT22;60111;48.286;7.812;2023-04-28T07:54:08;14.00;87.20
72206;DHT22;60111;48.286;7.812;2023-04-28T07:56:40;14.00;87.30
72206;DHT22;60111;48.286;7.812;2023-04-28T07:59:13;14.00;87.10
72206;DHT22;60111;48.286;7.812;2023-04-28T08:01:45;14.00;86.80
72206;DHT22;60111;48.286;7.812;2023-04-28T08:04:18;14.10;86.50
72206;DHT22;60111;48.286;7.812;2023-04-28T08:06:51;14.10;86.70
72206;DHT22;60111;48.286;7.812;2023-04-28T08:09:24;14.10;86.50
72206;DHT22;60111;48.286;7.812;2023-04-28T08:11:57;14.10;85.90
72206;DHT22;60111;48.286;7.812;2023-04-28T08:14:30;14.00;86.80
72206;DHT22;60111;48.286;7.812;2023-04-28T08:17:03;14.10;86.60
72206;DHT22;60111;48.286;7.812;2023-04-28T08:19:35;14.10;86.70
72206;DHT22;60111;48.286;7.812;2023-04-28T08:22:08;14.20;85.80
72206;DHT22;60111;48.286;7.812;2023-04-28T08:24:41;14.20;85.90
72206;DHT22;60111;48.286;7.812;2023-04-28T08:27:13;14.10;86.40
72206;DHT22;60111;48.286;7.812;2023-04-28T08:29:46;14.10;86.10
72206;DHT22;60111;48.286;7.812;2023-04-28T08:32:18;14.20;86.50
72206;DHT22;60111;48.286;7.812;2023-04-28T08:34:51;14.20;86.20
72206;DHT22;60111;48.286;7.812;2023-04-28T08:37:25;14.20;86.30
72206;DHT22;60111;48.286;7.812;2023-04-28T08:39:57;14.20;86.50
72206;DHT22;60111;48.286;7.812;2023-04-28T08:42:34;14.20;86.30
72206;DHT22;60111;48.286;7.812;2023-04-28T08:45:11;14.20;86.40
72206;DHT22;60111;48.286;7.812;2023-04-28T08:47:43;14.20;86.70
72206;DHT22;60111;48.286;7.812;2023-04-28T08:50:21;14.20;86.20
72206;DHT22;60111;48.286;7.812;2023-04-28T08:52:55;14.30;86.20
72206;DHT22;60111;48.286;7.812;2023-04-28T08:55:28;14.30;86.40
72206;DHT22;60111;48.286;7.812;2023-04-28T08:58:02;14.40;86.80
72206;DHT22;60111;48.286;7.812;2023-04-28T09:00:36;14.40;86.10
72206;DHT22;60111;48.286;7.812;2023-04-28T09:03:09;14.40;86.10
72206;DHT22;60111;48.286;7.812;2023-04-28T09:05:41;14.40;86.50
72206;DHT22;60111;48.286;7.812;2023-04-28T09:08:14;14.50;85.60
72206;DHT22;60111;48.286;7.812;2023-04-28T09:10:57;14.60;85.40
72206;DHT22;60111;48.286;7.812;2023-04-28T09:13:25;14.60;85.40
72206;DHT22;60111;48.286;7.812;2023-04-28T09:15:59;14.50;85.10
72206;DHT22;60111;48.286;7.812;2023-04-28T09:18:33;14.60;86.00
72206;DHT22;60111;48.286;7.812;2023-04-28T09:21:07;14.60;86.30
72206;DHT22;60111;48.286;7.812;2023-04-28T09:23:47;14.80;85.30
72206;DHT22;60111;48.286;7.812;2023-04-28T09:26:21;14.90;85.10
72206;DHT22;60111;48.286;7.812;2023-04-28T09:29:10;14.90;84.40
72206;DHT22;60111;48.286;7.812;2023-04-28T09:31:29;15.00;84.60
72206;DHT22;60111;48.286;7.812;2023-04-28T09:34:02;14.90;84.60
72206;DHT22;60111;48.286;7.812;2023-04-28T09:36:35;15.00;84.20
72206;DHT22;60111;48.286;7.812;2023-04-28T09:39:08;15.00;84.10
72206;DHT22;60111;48.286;7.812;2023-04-28T09:41:43;15.00;84.60
72206;DHT22;60111;48.286;7.812;2023-04-28T09:44:18;15.00;84.70
72206;DHT22;60111;48.286;7.812;2023-04-28T09:46:52;14.90;85.30
72206;DHT22;60111;48.286;7.812;2023-04-28T09:49:25;14.90;85.40
72206;DHT22;60111;48.286;7.812;2023-04-28T09:52:12;14.90;85.50
72206;DHT22;60111;48.286;7.812;2023-04-28T09:54:45;14.90;85.70
72206;DHT22;60111;48.286;7.812;2023-04-28T09:57:18;15.00;86.00
72206;DHT22;60111;48.286;7.812;2023-04-28T09:59:52;15.00;85.50
72206;DHT22;60111;48.286;7.812;2023-04-28T10:02:24;15.10;85.60
72206;DHT22;60111;48.286;7.812;2023-04-28T10:04:57;15.00;86.00
72206;DHT22;60111;48.286;7.812;2023-04-28T10:07:31;15.00;86.10
72206;DHT22;60111;48.286;7.812;2023-04-28T10:10:06;15.10;85.90
72206;DHT22;60111;48.286;7.812;2023-04-28T10:12:39;15.10;86.10
72206;DHT22;60111;48.286;7.812;2023-04-28T10:15:12;15.10;85.80
72206;DHT22;60111;48.286;7.812;2023-04-28T10:17:46;15.20;85.50
72206;DHT22;60111;48.286;7.812;2023-04-28T10:20:21;15.30;85.40
72206;DHT22;60111;48.286;7.812;2023-04-28T10:26:02;15.40;84.60
72206;DHT22;60111;48.286;7.812;2023-04-28T10:28:35;15.40;84.80
72206;DHT22;60111;48.286;7.812;2023-04-28T10:31:12;15.40;85.10
72206;DHT22;60111;48.286;7.812;2023-04-28T10:33:44;15.50;84.90
72206;DHT22;60111;48.286;7.812;2023-04-28T10:36:52;15.50;85.30
72206;DHT22;60111;48.286;7.812;2023-04-28T10:39:23;15.50;84.60
72206;DHT22;60111;48.286;7.812;2023-04-28T10:41:55;15.60;85.80
72206;DHT22;60111;48.286;7.812;2023-04-28T10:47:08;16.10;85.00
72206;DHT22;60111;48.286;7.812;2023-04-28T10:50:05;16.20;83.00
72206;DHT22;60111;48.286;7.812;2023-04-28T10:52:57;16.20;82.20
72206;DHT22;60111;48.286;7.812;2023-04-28T10:55:33;16.10;82.20
72206;DHT22;60111;48.286;7.812;2023-04-28T11:00:53;16.10;82.50
72206;DHT22;60111;48.286;7.812;2023-04-28T11:12:03;16.50;81.90
72206;DHT22;60111;48.286;7.812;2023-04-28T11:14:38;16.50;81.80
72206;DHT22;60111;48.286;7.812;2023-04-28T11:17:13;16.60;81.80
72206;DHT22;60111;48.286;7.812;2023-04-28T11:19:47;16.70;81.70
72206;DHT22;60111;48.286;7.812;2023-04-28T11:22:22;16.70;81.40
72206;DHT22;60111;48.286;7.812;2023-04-28T11:24:59;16.70;81.10
72206;DHT22;60111;48.286;7.812;2023-04-28T11:27:32;16.70;81.00
72206;DHT22;60111;48.286;7.812;2023-04-28T11:30:22;16.70;81.70
72206;DHT22;60111;48.286;7.812;2023-04-28T11:32:55;16.60;81.40
72206;DHT22;60111;48.286;7.812;2023-04-28T11:35:39;16.60;81.30
72206;DHT22;60111;48.286;7.812;2023-04-28T11:38:04;16.50;81.70
72206;DHT22;60111;48.286;7.812;2023-04-28T11:40:36;16.50;81.90
72206;DHT22;60111;48.286;7.812;2023-04-28T11:43:09;16.50;83.20
72206;DHT22;60111;48.286;7.812;2023-04-28T11:45:45;16.70;82.80
72206;DHT22;60111;48.286;7.812;2023-04-28T11:48:21;16.70;82.20
72206;DHT22;60111;48.286;7.812;2023-04-28T11:50:53;16.90;82.40
72206;DHT22;60111;48.286;7.812;2023-04-28T11:53:45;17.10;81.60
72206;DHT22;60111;48.286;7.812;2023-04-28T11:56:18;17.20;81.40
72206;DHT22;60111;48.286;7.812;2023-04-28T11:59:09;17.40;80.00
72206;DHT22;60111;48.286;7.812;2023-04-28T12:01:49;17.60;79.90
72206;DHT22;60111;48.286;7.812;2023-04-28T12:04:33;17.60;79.30
72206;DHT22;60111;48.286;7.812;2023-04-28T12:12:37;18.00;79.20
72206;DHT22;60111;48.286;7.812;2023-04-28T12:15:09;18.40;77.70
72206;DHT22;60111;48.286;7.812;2023-04-28T12:17:42;18.50;76.80
72206;DHT22;60111;48.286;7.812;2023-04-28T12:20:36;18.50;77.40
72206;DHT22;60111;48.286;7.812;2023-04-28T12:23:08;18.50;77.00
72206;DHT22;60111;48.286;7.812;2023-04-28T12:25:45;18.60;76.70
72206;DHT22;60111;48.286;7.812;2023-04-28T12:28:18;18.70;75.90
72206;DHT22;60111;48.286;7.812;2023-04-28T12:31:02;18.70;75.50
72206;DHT22;60111;48.286;7.812;2023-04-28T12:33:27;18.60;75.60
72206;DHT22;60111;48.286;7.812;2023-04-28T12:36:00;18.40;76.30
72206;DHT22;60111;48.286;7.812;2023-04-28T12:38:33;18.40;76.60
72206;DHT22;60111;48.286;7.812;2023-04-28T12:41:05;18.30;76.00
72206;DHT22;60111;48.286;7.812;2023-04-28T12:43:38;18.30;77.30
72206;DHT22;60111;48.286;7.812;2023-04-28T12:46:11;18.10;77.70
72206;DHT22;60111;48.286;7.812;2023-04-28T12:48:45;18.00;78.10
72206;DHT22;60111;48.286;7.812;2023-04-28T12:51:18;18.00;78.10
72206;DHT22;60111;48.286;7.812;2023-04-28T12:53:51;17.90;78.00
72206;DHT22;60111;48.286;7.812;2023-04-28T12:56:23;17.90;79.50
72206;DHT22;60111;48.286;7.812;2023-04-28T12:58:56;17.80;80.70
72206;DHT22;60111;48.286;7.812;2023-04-28T13:01:28;17.80;78.80
72206;DHT22;60111;48.286;7.812;2023-04-28T13:04:01;17.80;79.20
72206;DHT22;60111;48.286;7.812;2023-04-28T13:06:34;17.80;79.30
72206;DHT22;60111;48.286;7.812;2023-04-28T13:09:07;17.70;80.50
72206;DHT22;60111;48.286;7.812;2023-04-28T13:11:40;17.70;80.70
72206;DHT22;60111;48.286;7.812;2023-04-28T13:14:13;17.70;81.50
72206;DHT22;60111;48.286;7.812;2023-04-28T13:16:45;17.70;81.20
72206;DHT22;60111;48.286;7.812;2023-04-28T13:19:18;17.70;81.10
72206;DHT22;60111;48.286;7.812;2023-04-28T13:21:50;17.80;81.30
72206;DHT22;60111;48.286;7.812;2023-04-28T13:24:24;17.90;81.50
72206;DHT22;60111;48.286;7.812;2023-04-28T13:26:56;18.10;81.80
72206;DHT22;60111;48.286;7.812;2023-04-28T13:29:29;18.40;80.80
72206;DHT22;60111;48.286;7.812;2023-04-28T13:32:02;18.40;79.70
72206;DHT22;60111;48.286;7.812;2023-04-28T13:34:35;18.50;79.90
72206;DHT22;60111;48.286;7.812;2023-04-28T13:37:08;18.60;79.80
72206;DHT22;60111;48.286;7.812;2023-04-28T13:39:41;18.60;79.40
72206;DHT22;60111;48.286;7.812;2023-04-28T13:42:13;18.60;79.80
72206;DHT22;60111;48.286;7.812;2023-04-28T13:44:46;18.80;79.40
72206;DHT22;60111;48.286;7.812;2023-04-28T13:47:19;18.80;80.00
72206;DHT22;60111;48.286;7.812;2023-04-28T13:49:52;19.00;79.60
72206;DHT22;60111;48.286;7.812;2023-04-28T13:52:25;19.10;77.20
72206;DHT22;60111;48.286;7.812;2023-04-28T13:54:58;19.20;75.70
72206;DHT22;60111;48.286;7.812;2023-04-28T13:57:31;19.20;73.70
72206;DHT22;60111;48.286;7.812;2023-04-28T14:00:04;19.20;74.00
72206;DHT22;60111;48.286;7.812;2023-04-28T14:02:36;19.20;72.60
72206;DHT22;60111;48.286;7.812;2023-04-28T14:05:10;19.00;74.40
72206;DHT22;60111;48.286;7.812;2023-04-28T14:07:43;18.80;74.90
72206;DHT22;60111;48.286;7.812;2023-04-28T14:10:16;18.70;75.50
72206;DHT22;60111;48.286;7.812;2023-04-28T14:12:49;18.70;76.30
72206;DHT22;60111;48.286;7.812;2023-04-28T14:15:21;18.50;77.60
72206;DHT22;60111;48.286;7.812;2023-04-28T14:17:54;18.50;76.00
72206;DHT22;60111;48.286;7.812;2023-04-28T14:20:26;18.40;75.50
72206;DHT22;60111;48.286;7.812;2023-04-28T14:23:00;18.40;75.70
72206;DHT22;60111;48.286;7.812;2023-04-28T14:25:33;18.40;75.70
72206;DHT22;60111;48.286;7.812;2023-04-28T14:28:06;18.30;75.40
72206;DHT22;60111;48.286;7.812;2023-04-28T14:30:38;18.30;76.20
72206;DHT22;60111;48.286;7.812;2023-04-28T14:33:11;18.20;76.50
72206;DHT22;60111;48.286;7.812;2023-04-28T14:35:44;18.30;76.90
72206;DHT22;60111;48.286;7.812;2023-04-28T14:38:16;18.40;77.20
72206;DHT22;60111;48.286;7.812;2023-04-28T14:40:49;18.70;77.10
72206;DHT22;60111;48.286;7.812;2023-04-28T14:43:22;19.00;76.20
72206;DHT22;60111;48.286;7.812;2023-04-28T14:45:55;19.20;76.10
72206;DHT22;60111;48.286;7.812;2023-04-28T14:48:28;19.50;75.10
72206;DHT22;60111;48.286;7.812;2023-04-28T14:51:02;19.70;73.30
72206;DHT22;60111;48.286;7.812;2023-04-28T14:53:36;19.70;71.60
72206;DHT22;60111;48.286;7.812;2023-04-28T14:56:09;19.70;72.00
72206;DHT22;60111;48.286;7.812;2023-04-28T14:58:41;19.70;72.30
72206;DHT22;60111;48.286;7.812;2023-04-28T15:01:14;19.50;72.80
72206;DHT22;60111;48.286;7.812;2023-04-28T15:03:47;19.40;73.70
72206;DHT22;60111;48.286;7.812;2023-04-28T15:06:20;19.40;73.90
72206;DHT22;60111;48.286;7.812;2023-04-28T15:08:53;19.50;73.60
72206;DHT22;60111;48.286;7.812;2023-04-28T15:11:26;19.50;73.50
72206;DHT22;60111;48.286;7.812;2023-04-28T15:13:58;19.60;74.10
72206;DHT22;60111;48.286;7.812;2023-04-28T15:16:31;19.70;74.30
72206;DHT22;60111;48.286;7.812;2023-04-28T15:19:04;19.70;74.60
72206;DHT22;60111;48.286;7.812;2023-04-28T15:21:36;19.70;73.90
72206;DHT22;60111;48.286;7.812;2023-04-28T15:24:09;19.70;74.00
72206;DHT22;60111;48.286;7.812;2023-04-28T15:26:42;19.70;73.20
72206;DHT22;60111;48.286;7.812;2023-04-28T15:29:16;19.60;73.20
72206;DHT22;60111;48.286;7.812;2023-04-28T15:31:49;19.60;72.10
72206;DHT22;60111;48.286;7.812;2023-04-28T15:34:23;19.60;72.80
72206;DHT22;60111;48.286;7.812;2023-04-28T15:36:55;19.50;73.30
72206;DHT22;60111;48.286;7.812;2023-04-28T15:39:28;19.50;71.00
72206;DHT22;60111;48.286;7.812;2023-04-28T15:42:02;19.70;72.30
72206;DHT22;60111;48.286;7.812;2023-04-28T15:44:35;19.70;72.20
72206;DHT22;60111;48.286;7.812;2023-04-28T15:47:08;19.80;71.90
72206;DHT22;60111;48.286;7.812;2023-04-28T15:49:40;19.80;71.60
72206;DHT22;60111;48.286;7.812;2023-04-28T15:52:13;19.70;70.90
72206;DHT22;60111;48.286;7.812;2023-04-28T15:54:46;19.80;71.50
72206;DHT22;60111;48.286;7.812;2023-04-28T15:57:19;19.90;70.20
72206;DHT22;60111;48.286;7.812;2023-04-28T15:59:52;19.90;69.50
72206;DHT22;60111;48.286;7.812;2023-04-28T16:02:25;19.80;69.00
72206;DHT22;60111;48.286;7.812;2023-04-28T16:04:58;19.90;69.40
72206;DHT22;60111;48.286;7.812;2023-04-28T16:07:33;19.90;70.50
72206;DHT22;60111;48.286;7.812;2023-04-28T16:10:10;19.90;69.40
72206;DHT22;60111;48.286;7.812;2023-04-28T16:12:43;19.90;69.10
72206;DHT22;60111;48.286;7.812;2023-04-28T16:15:16;20.00;69.50
72206;DHT22;60111;48.286;7.812;2023-04-28T16:17:49;20.00;70.30
72206;DHT22;60111;48.286;7.812;2023-04-28T16:20:22;20.00;69.50
72206;DHT22;60111;48.286;7.812;2023-04-28T16:22:55;20.00;70.40
72206;DHT22;60111;48.286;7.812;2023-04-28T16:25:29;20.10;70.80
72206;DHT22;60111;48.286;7.812;2023-04-28T16:28:01;20.30;70.00
72206;DHT22;60111;48.286;7.812;2023-04-28T16:30:34;20.30;69.30
72206;DHT22;60111;48.286;7.812;2023-04-28T16:33:07;20.20;69.10